createdAt,value
2019-05-29T00:00:50.448Z,4.57
2019-05-29T00:03:25.289Z,4.08
2019-05-29T00:05:59.700Z,4.40
2019-05-29T00:08:34.276Z,4.58
2019-05-29T00:11:09.930Z,3.83
2019-05-29T00:13:44.753Z,4.42
2019-05-29T00:16:18.629Z,4.08
2019-05-29T00:18:53.426Z,4.33
2019-05-29T00:21:27.877Z,5.53
2019-05-29T00:24:02.478Z,3.90
2019-05-29T00:26:37.019Z,4.47
2019-05-29T00:29:11.807Z,4.03
2019-05-29T00:31:46.689Z,4.37
2019-05-29T00:34:20.929Z,3.90
2019-05-29T00:36:55.608Z,5.33
2019-05-29T00:39:30.449Z,4.92
2019-05-29T00:42:22.863Z,3.80
2019-05-29T00:44:57.925Z,3.08
2019-05-29T00:47:32.687Z,3.65
2019-05-29T00:50:08.016Z,3.00
2019-05-29T00:52:42.767Z,4.50
2019-05-29T00:55:17.369Z,4.37
2019-05-29T00:57:51.384Z,4.03
2019-05-29T01:00:25.897Z,2.90
2019-05-29T01:03:00.698Z,2.52
2019-05-29T01:05:35.304Z,3.25
2019-05-29T01:08:10.446Z,2.58
2019-05-29T01:10:45.397Z,4.15
2019-05-29T01:13:21.191Z,4.55
2019-05-29T01:15:56.327Z,3.00
2019-05-29T01:18:30.787Z,4.70
2019-05-29T01:21:05.434Z,5.78
2019-05-29T01:23:40.328Z,8.08
2019-05-29T01:26:14.713Z,5.03
2019-05-29T01:28:48.803Z,3.75
2019-05-29T01:31:24.459Z,2.42
2019-05-29T01:33:59.191Z,2.45
2019-05-29T01:36:36.548Z,2.45
2019-05-29T01:39:11.615Z,2.25
2019-05-29T01:41:46.356Z,2.58
2019-05-29T01:44:21.460Z,2.75
2019-05-29T01:46:56.667Z,2.42
2019-05-29T01:49:31.321Z,2.10
2019-05-29T01:52:06.108Z,2.75
2019-05-29T01:54:40.915Z,2.30
2019-05-29T01:57:15.805Z,1.95
2019-05-29T01:59:50.031Z,2.20
2019-05-29T02:02:24.545Z,2.70
2019-05-29T02:04:59.393Z,2.40
2019-05-29T02:07:34.241Z,2.00
2019-05-29T02:10:09.357Z,2.42
2019-05-29T02:12:44.388Z,1.70
2019-05-29T02:15:29.543Z,2.10
2019-05-29T02:17:55.658Z,1.80
2019-05-29T02:20:29.774Z,4.07
2019-05-29T02:23:08.578Z,2.58
2019-05-29T02:25:43.374Z,2.52
2019-05-29T02:28:18.512Z,2.98
2019-05-29T02:30:53.059Z,1.60
2019-05-29T02:33:28.376Z,2.57
2019-05-29T02:36:02.806Z,2.75
2019-05-29T02:38:37.821Z,2.00
2019-05-29T02:41:12.195Z,2.67
2019-05-29T02:43:46.865Z,1.70
2019-05-29T02:46:21.745Z,2.67
2019-05-29T02:48:56.741Z,2.55
2019-05-29T02:51:31.746Z,1.55
2019-05-29T02:54:06.249Z,1.27
2019-05-29T02:56:42.694Z,1.25
2019-05-29T02:59:17.574Z,1.30
2019-05-29T03:01:52.324Z,1.27
2019-05-29T03:04:28.073Z,1.30
2019-05-29T03:07:05.400Z,1.87
2019-05-29T03:09:41.175Z,1.50
2019-05-29T03:12:19.343Z,1.75
2019-05-29T03:14:55.653Z,2.20
2019-05-29T03:17:33.849Z,1.35
2019-05-29T03:20:09.209Z,1.52
2019-05-29T03:22:44.551Z,2.27
2019-05-29T03:25:20.164Z,1.40
2019-05-29T03:28:01.754Z,2.00
2019-05-29T03:30:44.144Z,1.67
2019-05-29T03:33:11.744Z,2.98
2019-05-29T03:35:48.470Z,1.40
2019-05-29T03:38:22.158Z,1.60
2019-05-29T03:40:57.204Z,1.20
2019-05-29T03:43:36.031Z,1.20
2019-05-29T03:46:29.108Z,1.37
2019-05-29T03:48:46.807Z,1.62
2019-05-29T03:51:27.176Z,1.55
2019-05-29T03:54:02.290Z,1.57
2019-05-29T03:56:38.764Z,2.15
2019-05-29T03:59:12.950Z,4.35
2019-05-29T04:01:52.564Z,1.90
2019-05-29T04:04:28.905Z,2.58
2019-05-29T04:07:09.116Z,1.82
2019-05-29T04:09:43.560Z,1.42
2019-05-29T04:12:19.110Z,2.27
2019-05-29T04:14:54.385Z,1.12
2019-05-29T04:17:29.775Z,1.62
2019-05-29T04:20:05.238Z,1.30
2019-05-29T04:22:46.216Z,1.55
2019-05-29T04:25:20.655Z,1.37
2019-05-29T04:27:56.655Z,2.02
2019-05-29T04:30:32.036Z,1.50
2019-05-29T04:33:06.939Z,1.67
2019-05-29T04:35:41.846Z,2.45
2019-05-29T04:38:17.111Z,1.60
2019-05-29T04:40:52.585Z,1.98
2019-05-29T04:43:28.755Z,1.87
2019-05-29T04:46:02.765Z,2.27
2019-05-29T04:48:38.388Z,1.77
2019-05-29T04:51:12.700Z,1.85
2019-05-29T04:53:48.080Z,2.62
2019-05-29T04:56:22.041Z,1.98
2019-05-29T04:58:56.390Z,2.12
2019-05-29T05:01:30.953Z,1.52
2019-05-29T05:04:09.332Z,1.47
2019-05-29T05:06:46.998Z,1.12
2019-05-29T05:09:21.659Z,1.10
2019-05-29T05:11:56.653Z,1.82
2019-05-29T05:14:37.889Z,2.05
2019-05-29T05:17:25.230Z,1.82
2019-05-29T05:19:48.369Z,1.32
2019-05-29T05:22:22.580Z,2.00
2019-05-29T05:24:57.443Z,5.10
2019-05-29T05:27:32.161Z,2.53
2019-05-29T05:30:09.069Z,1.50
2019-05-29T05:32:43.820Z,2.15
2019-05-29T05:35:19.083Z,1.82
2019-05-29T05:37:53.066Z,1.85
2019-05-29T05:40:27.515Z,1.40
2019-05-29T05:43:02.453Z,3.15
2019-05-29T05:45:37.343Z,2.75
2019-05-29T05:48:12.146Z,3.67
2019-05-29T05:50:46.692Z,2.52
2019-05-29T05:53:22.292Z,2.42
2019-05-29T05:55:56.867Z,4.70
2019-05-29T05:58:31.720Z,3.95
2019-05-29T06:01:10.400Z,2.03
2019-05-29T06:03:45.028Z,1.40
2019-05-29T06:06:20.055Z,1.27
2019-05-29T06:08:54.680Z,1.45
2019-05-29T06:11:29.419Z,1.40
2019-05-29T06:14:07.603Z,1.42
2019-05-29T06:16:48.703Z,1.50
2019-05-29T06:19:23.599Z,1.40
2019-05-29T06:21:58.562Z,1.25
2019-05-29T06:24:33.459Z,1.45
2019-05-29T06:27:08.603Z,1.90
2019-05-29T06:29:43.691Z,0.93
2019-05-29T06:32:18.514Z,1.05
2019-05-29T06:34:53.463Z,1.37
2019-05-29T06:37:28.314Z,1.60
2019-05-29T06:40:03.143Z,0.80
2019-05-29T06:42:41.892Z,1.27
2019-05-29T06:45:18.373Z,1.32
2019-05-29T06:47:53.103Z,1.17
2019-05-29T06:50:27.721Z,1.45
2019-05-29T06:53:05.152Z,1.25
2019-05-29T06:55:42.263Z,2.45
2019-05-29T06:58:18.273Z,1.20
2019-05-29T07:00:53.052Z,2.10
2019-05-29T07:03:27.898Z,2.10
2019-05-29T07:06:02.720Z,2.52
2019-05-29T07:08:40.110Z,2.70
2019-05-29T07:11:13.475Z,2.10
2019-05-29T07:13:50.309Z,1.62
2019-05-29T07:16:23.758Z,2.55
2019-05-29T07:21:36.617Z,1.10
2019-05-29T07:24:11.656Z,1.40
2019-05-29T07:26:47.245Z,2.65
2019-05-29T07:29:22.319Z,3.70
2019-05-29T07:32:01.356Z,4.00
2019-05-29T07:34:51.934Z,2.85
2019-05-29T07:37:14.093Z,2.08
2019-05-29T07:39:48.995Z,1.52
2019-05-29T07:42:26.118Z,2.22
2019-05-29T07:45:00.649Z,1.12
2019-05-29T07:47:38.549Z,0.87
2019-05-29T07:50:13.820Z,0.78
2019-05-29T07:52:49.235Z,1.15
2019-05-29T07:55:24.224Z,0.80
2019-05-29T07:57:59.357Z,1.10
2019-05-29T08:00:37.977Z,1.62
2019-05-29T08:03:09.979Z,2.25
2019-05-29T08:06:03.663Z,3.67
2019-05-29T08:08:39.160Z,3.08
2019-05-29T08:11:13.714Z,2.20
2019-05-29T08:13:52.709Z,1.90
2019-05-29T08:16:27.106Z,1.40
2019-05-29T08:19:01.829Z,1.47
2019-05-29T08:21:36.637Z,1.30
2019-05-29T08:24:11.514Z,2.52
2019-05-29T08:26:46.842Z,1.57
2019-05-29T08:29:21.575Z,1.72
2019-05-29T08:31:55.419Z,2.08
2019-05-29T08:34:29.497Z,1.75
2019-05-29T08:37:06.987Z,1.95
2019-05-29T08:39:39.857Z,1.57
2019-05-29T08:42:23.239Z,3.37
2019-05-29T08:44:56.828Z,1.50
2019-05-29T08:47:34.109Z,1.65
2019-05-29T08:50:18.107Z,1.30
2019-05-29T08:52:45.861Z,1.25
2019-05-29T08:55:20.724Z,2.08
2019-05-29T08:57:55.079Z,1.60
2019-05-29T09:00:32.388Z,1.43
2019-05-29T09:03:07.933Z,1.87
2019-05-29T09:05:42.786Z,2.17
2019-05-29T09:08:20.489Z,1.12
2019-05-29T09:10:55.131Z,1.60
2019-05-29T09:13:30.236Z,2.60
2019-05-29T09:16:07.379Z,1.25
2019-05-29T09:18:44.349Z,1.25
2019-05-29T09:21:19.664Z,2.45
2019-05-29T09:23:58.508Z,1.98
2019-05-29T09:26:31.178Z,3.35
2019-05-29T09:29:09.782Z,1.90
2019-05-29T09:31:44.832Z,2.22
2019-05-29T09:34:20.573Z,2.43
2019-05-29T09:36:56.039Z,2.52
2019-05-29T09:39:31.011Z,1.72
2019-05-29T09:42:05.577Z,1.77
2019-05-29T09:44:40.268Z,4.30
2019-05-29T09:47:19.037Z,1.20
2019-05-29T09:49:54.144Z,1.37
2019-05-29T09:53:44.883Z,2.08
2019-05-29T09:55:04.846Z,1.50
2019-05-29T09:57:39.766Z,1.90
2019-05-29T10:00:18.880Z,1.75
2019-05-29T10:02:55.447Z,1.37
2019-05-29T10:05:30.394Z,4.42
2019-05-29T10:08:04.854Z,2.65
2019-05-29T10:10:39.884Z,2.72
2019-05-29T10:13:14.899Z,2.10
2019-05-29T10:15:51.860Z,1.90
2019-05-29T10:18:32.534Z,2.15
2019-05-29T10:21:05.109Z,2.22
2019-05-29T10:23:40.274Z,1.92
2019-05-29T10:26:15.871Z,2.62
2019-05-29T10:29:04.397Z,1.87
2019-05-29T10:31:27.912Z,2.47
2019-05-29T10:34:02.942Z,2.12
2019-05-29T10:36:37.643Z,1.82
2019-05-29T10:39:13.592Z,1.60
2019-05-29T10:41:48.856Z,4.03
2019-05-29T10:44:23.616Z,3.40
2019-05-29T10:46:58.422Z,1.27
2019-05-29T10:49:33.563Z,2.33
2019-05-29T10:52:16.190Z,1.50
2019-05-29T10:54:44.732Z,1.98
2019-05-29T10:57:38.388Z,1.62
2019-05-29T11:00:12.836Z,1.60
2019-05-29T11:02:48.113Z,1.90
2019-05-29T11:05:23.906Z,2.85
2019-05-29T11:07:58.247Z,2.35
2019-05-29T11:10:32.853Z,2.30
2019-05-29T11:13:07.312Z,4.50
2019-05-29T11:15:41.994Z,3.45
2019-05-29T11:18:34.626Z,3.17
2019-05-29T11:21:12.448Z,2.53
2019-05-29T11:23:47.707Z,2.80
2019-05-29T11:26:22.494Z,2.10
2019-05-29T11:28:56.767Z,2.30
2019-05-29T11:31:31.124Z,1.35
2019-05-29T11:34:05.996Z,1.87
2019-05-29T11:36:40.742Z,2.20
2019-05-29T11:39:15.693Z,1.95
2019-05-29T11:41:50.721Z,3.33
2019-05-29T11:44:25.247Z,1.80
2019-05-29T11:46:59.922Z,1.55
2019-05-29T11:49:34.013Z,1.77
2019-05-29T11:52:23.577Z,2.02
2019-05-29T11:55:04.861Z,1.45
2019-05-29T11:57:39.739Z,3.27
2019-05-29T12:00:19.797Z,1.30
2019-05-29T12:02:51.493Z,2.00
2019-05-29T12:05:26.333Z,1.67
2019-05-29T12:08:01.901Z,2.33
2019-05-29T12:10:55.335Z,2.10
2019-05-29T12:13:29.979Z,2.00
2019-05-29T12:16:04.276Z,1.95
2019-05-29T12:21:24.826Z,1.60
2019-05-29T12:24:00.810Z,1.65
2019-05-29T12:26:35.412Z,2.75
2019-05-29T12:29:11.861Z,1.50
2019-05-29T12:31:46.554Z,2.58
2019-05-29T12:34:21.237Z,2.05
2019-05-29T12:36:57.275Z,2.25
2019-05-29T12:39:31.975Z,3.62
2019-05-29T12:42:06.803Z,3.65
2019-05-29T12:44:41.675Z,3.42
2019-05-29T12:47:16.594Z,3.55
2019-05-29T12:50:11.720Z,3.00
2019-05-29T12:52:46.519Z,3.52
2019-05-29T12:55:21.346Z,3.37
2019-05-29T12:57:55.927Z,4.30
2019-05-29T13:00:30.797Z,3.52
2019-05-29T13:03:05.336Z,4.03
2019-05-29T13:05:39.998Z,4.55
2019-05-29T13:08:14.782Z,4.15
2019-05-29T13:10:49.442Z,6.67
2019-05-29T13:13:23.997Z,4.53
2019-05-29T13:15:58.841Z,5.83
2019-05-29T13:18:33.281Z,5.72
2019-05-29T13:21:08.251Z,7.60
2019-05-29T13:23:45.378Z,9.38
2019-05-29T13:26:18.920Z,7.17
2019-05-29T13:28:53.436Z,7.08
2019-05-29T13:31:28.165Z,7.22
2019-05-29T13:34:02.698Z,6.87
2019-05-29T13:36:37.365Z,5.12
2019-05-29T13:39:12.996Z,5.47
2019-05-29T13:41:47.628Z,4.75
2019-05-29T13:44:22.186Z,4.03
2019-05-29T13:46:57.781Z,3.85
2019-05-29T13:49:32.426Z,4.28
2019-05-29T13:52:09.940Z,2.75
2019-05-29T13:54:43.343Z,3.75
2019-05-29T13:57:17.747Z,2.92
2019-05-29T13:59:52.178Z,2.62
2019-05-29T14:02:26.897Z,3.25
2019-05-29T14:05:02.832Z,2.92
2019-05-29T14:07:37.842Z,4.03
2019-05-29T14:10:13.151Z,3.80
2019-05-29T14:12:47.884Z,4.83
2019-05-29T14:15:22.360Z,6.65
2019-05-29T14:17:57.272Z,5.87
2019-05-29T14:20:31.827Z,7.43
2019-05-29T14:23:07.493Z,6.10
2019-05-29T14:25:42.430Z,5.95
2019-05-29T14:28:17.300Z,4.83
2019-05-29T14:30:52.304Z,5.08
2019-05-29T14:33:26.799Z,4.78
2019-05-29T14:36:01.407Z,6.95
2019-05-29T14:38:36.081Z,8.48
2019-05-29T14:41:11.883Z,6.85
2019-05-29T14:43:46.947Z,6.95
2019-05-29T14:46:21.575Z,7.53
2019-05-29T14:48:56.584Z,10.65
2019-05-29T14:51:31.620Z,8.08
2019-05-29T14:54:06.829Z,7.55
2019-05-29T14:56:41.656Z,6.28
2019-05-29T14:59:16.050Z,5.33
2019-05-29T15:01:51.326Z,3.83
2019-05-29T15:04:26.520Z,4.30
2019-05-29T15:07:01.011Z,2.67
2019-05-29T15:09:35.689Z,3.55
2019-05-29T15:12:10.408Z,2.58
2019-05-29T15:14:44.952Z,2.00
2019-05-29T15:17:19.605Z,2.40
2019-05-29T15:19:54.491Z,1.50
2019-05-29T15:22:29.271Z,1.67
2019-05-29T15:25:12.246Z,2.10
2019-05-29T15:27:39.982Z,2.47
2019-05-29T15:30:19.993Z,1.98
2019-05-29T15:32:50.630Z,1.37
2019-05-29T15:35:25.006Z,2.47
2019-05-29T15:37:59.980Z,2.65
2019-05-29T15:40:34.694Z,2.45
2019-05-29T15:43:10.829Z,2.02
2019-05-29T15:45:45.729Z,2.87
2019-05-29T15:48:20.447Z,2.30
2019-05-29T15:50:55.657Z,2.27
2019-05-29T15:53:30.383Z,2.75
2019-05-29T15:56:20.177Z,2.30
2019-05-29T15:58:41.496Z,3.75
2019-05-29T16:01:17.829Z,3.02
2019-05-29T16:03:52.236Z,3.75
2019-05-29T16:06:45.650Z,5.22
2019-05-29T16:09:20.252Z,5.92
2019-05-29T16:11:55.134Z,6.83
2019-05-29T16:14:29.646Z,6.83
2019-05-29T16:17:03.926Z,5.55
2019-05-29T16:19:39.124Z,7.62
2019-05-29T16:22:14.363Z,7.45
2019-05-29T16:24:49.463Z,5.90
2019-05-29T16:27:30.722Z,6.55
2019-05-29T16:30:01.175Z,6.05
2019-05-29T16:32:35.150Z,5.80
2019-05-29T16:35:10.914Z,5.22
2019-05-29T16:37:45.556Z,6.65
2019-05-29T16:40:20.075Z,8.78
2019-05-29T16:42:54.698Z,9.23
2019-05-29T16:45:29.472Z,8.63
2019-05-29T16:48:04.008Z,8.20
2019-05-29T16:50:39.038Z,8.45
2019-05-29T16:53:14.727Z,7.37
2019-05-29T16:55:53.704Z,5.72
2019-05-29T16:58:25.962Z,6.58
2019-05-29T17:01:00.786Z,4.67
2019-05-29T17:03:35.929Z,4.72
2019-05-29T17:06:10.972Z,5.67
2019-05-29T17:08:45.496Z,6.10
2019-05-29T17:11:20.391Z,6.73
2019-05-29T17:13:55.209Z,3.98
2019-05-29T17:16:29.894Z,4.20
2019-05-29T17:19:08.435Z,2.05
2019-05-29T17:21:42.905Z,1.35
2019-05-29T17:24:18.688Z,1.12
2019-05-29T17:26:53.220Z,0.55
2019-05-29T17:29:27.673Z,0.80
2019-05-29T17:32:02.767Z,0.85
2019-05-29T17:34:37.318Z,3.30
2019-05-29T17:37:12.301Z,2.13
2019-05-29T17:39:46.984Z,4.40
2019-05-29T17:42:22.587Z,4.30
2019-05-29T17:44:57.594Z,6.22
2019-05-29T17:47:32.118Z,2.55
2019-05-29T17:50:06.786Z,2.57
2019-05-29T17:52:41.513Z,2.83
2019-05-29T17:55:20.006Z,3.63
2019-05-29T17:57:52.099Z,6.67
2019-05-29T18:00:26.992Z,4.10
2019-05-29T18:03:01.743Z,2.98
2019-05-29T18:05:36.930Z,2.17
2019-05-29T18:08:11.456Z,1.73
2019-05-29T18:10:46.296Z,3.23
2019-05-29T18:13:21.376Z,2.17
2019-05-29T18:15:55.852Z,1.47
2019-05-29T18:18:30.704Z,0.97
2019-05-29T18:21:05.240Z,1.43
2019-05-29T18:23:39.742Z,1.50
2019-05-29T18:26:14.472Z,2.10
2019-05-29T18:28:49.088Z,3.90
2019-05-29T18:31:24.419Z,1.82
2019-05-29T18:33:59.984Z,1.03
2019-05-29T18:36:34.646Z,1.07
2019-05-29T18:39:10.178Z,1.17
2019-05-29T18:41:44.925Z,1.93
2019-05-29T18:44:20.634Z,1.23
2019-05-29T18:46:55.078Z,1.77
2019-05-29T18:49:29.969Z,1.57
2019-05-29T18:52:04.699Z,2.10
2019-05-29T18:54:39.419Z,2.43
2019-05-29T18:57:15.953Z,2.87
2019-05-29T18:59:50.461Z,1.57
2019-05-29T19:02:25.412Z,2.33
2019-05-29T19:05:00.175Z,3.27
2019-05-29T19:07:34.949Z,1.57
2019-05-29T19:10:09.493Z,2.17
2019-05-29T19:12:43.965Z,1.47
2019-05-29T19:15:19.134Z,1.20
2019-05-29T19:17:53.990Z,2.03
2019-05-29T19:20:28.646Z,2.57
2019-05-29T19:23:03.417Z,1.83
2019-05-29T19:25:38.273Z,2.23
2019-05-29T19:28:13.040Z,1.00
2019-05-29T19:30:49.601Z,0.90
2019-05-29T19:33:25.172Z,1.90
2019-05-29T19:36:00.313Z,2.30
2019-05-29T19:38:34.998Z,1.53
2019-05-29T19:41:10.078Z,1.83
2019-05-29T19:43:48.476Z,3.50
2019-05-29T19:46:22.939Z,1.83
2019-05-29T19:48:57.629Z,2.00
2019-05-29T19:51:33.569Z,0.97
2019-05-29T19:54:14.885Z,2.17
2019-05-29T19:56:45.928Z,2.27
2019-05-29T19:59:20.578Z,1.30
2019-05-29T20:01:55.716Z,1.27
2019-05-29T20:04:30.558Z,1.00
2019-05-29T20:07:06.161Z,1.23
2019-05-29T20:09:42.314Z,1.83
2019-05-29T20:12:17.305Z,0.90
2019-05-29T20:14:52.071Z,1.50
2019-05-29T20:17:27.858Z,1.97
2019-05-29T20:20:10.571Z,1.53
2019-05-29T20:22:46.813Z,1.93
2019-05-29T20:25:21.635Z,1.27
2019-05-29T20:28:06.328Z,2.67
2019-05-29T20:30:36.463Z,0.90
2019-05-29T20:33:16.062Z,1.63
2019-05-29T20:35:50.774Z,2.30
2019-05-29T20:38:25.404Z,1.33
2019-05-29T20:41:05.528Z,1.57
2019-05-29T20:43:41.770Z,0.80
2019-05-29T20:46:19.659Z,2.87
2019-05-29T20:48:55.026Z,2.57
2019-05-29T20:51:30.233Z,1.63
2019-05-29T20:54:06.532Z,2.00
2019-05-29T20:56:44.130Z,1.73
2019-05-29T20:59:22.298Z,1.40
2019-05-29T21:01:57.284Z,2.63
2019-05-29T21:04:34.551Z,2.43
2019-05-29T21:07:10.055Z,2.90
2019-05-29T21:09:45.029Z,3.57
2019-05-29T21:12:21.094Z,2.67
2019-05-29T21:14:56.718Z,3.55
2019-05-29T21:17:33.747Z,3.60
2019-05-29T21:20:11.006Z,2.50
2019-05-29T21:22:46.570Z,2.90
2019-05-29T21:25:25.397Z,2.40
2019-05-29T21:28:00.251Z,2.50
2019-05-29T21:30:35.563Z,3.13
2019-05-29T21:33:10.801Z,3.07
2019-05-29T21:35:46.346Z,3.70
2019-05-29T21:38:21.568Z,3.20
2019-05-29T21:40:56.807Z,3.27
2019-05-29T21:43:36.401Z,5.23
2019-05-29T21:46:11.209Z,4.40
2019-05-29T21:48:47.304Z,3.27
2019-05-29T21:51:26.240Z,6.83
2019-05-29T21:54:03.455Z,6.37
2019-05-29T21:56:39.415Z,4.43
2019-05-29T21:59:14.647Z,3.43
2019-05-29T22:01:49.539Z,3.10
2019-05-29T22:04:25.376Z,4.93
2019-05-29T22:07:00.135Z,4.07
2019-05-29T22:09:35.262Z,4.10
2019-05-29T22:12:10.406Z,3.83
2019-05-29T22:14:46.713Z,4.90
2019-05-29T22:17:22.005Z,3.57
2019-05-29T22:19:57.186Z,4.00
2019-05-29T22:22:31.655Z,3.43
2019-05-29T22:25:07.169Z,6.43
2019-05-29T22:27:44.572Z,2.70
2019-05-29T22:30:21.287Z,3.27
2019-05-29T22:32:57.464Z,3.20
2019-05-29T22:35:32.857Z,2.03
2019-05-29T22:38:10.131Z,3.77
2019-05-29T22:40:47.855Z,2.30
2019-05-29T22:43:22.783Z,2.30
2019-05-29T22:46:06.544Z,2.10
2019-05-29T22:48:45.079Z,2.57
2019-05-29T22:51:19.913Z,4.20
2019-05-29T22:53:54.665Z,3.63
2019-05-29T22:56:30.901Z,2.63
2019-05-29T22:59:05.528Z,2.90
2019-05-29T23:01:39.975Z,1.93
2019-05-29T23:04:14.803Z,2.20
2019-05-29T23:06:49.760Z,3.20
2019-05-29T23:09:24.729Z,1.80
2019-05-29T23:12:00.435Z,3.07
2019-05-29T23:14:36.018Z,4.47
2019-05-29T23:17:10.771Z,2.90
2019-05-29T23:19:44.836Z,2.67
2019-05-29T23:22:20.122Z,2.50
2019-05-29T23:24:54.887Z,2.97
2019-05-29T23:27:29.557Z,2.47
2019-05-29T23:30:04.323Z,3.33
2019-05-29T23:32:39.505Z,2.77
2019-05-29T23:35:14.511Z,1.90
2019-05-29T23:37:49.520Z,2.00
2019-05-29T23:40:24.323Z,2.10
2019-05-29T23:42:59.466Z,4.57
2019-05-29T23:45:35.697Z,3.77
2019-05-29T23:48:10.494Z,4.40
2019-05-29T23:50:46.090Z,4.15
2019-05-29T23:53:21.139Z,4.17
2019-05-29T23:55:55.970Z,3.57
2019-05-29T23:58:30.562Z,3.10
